createdAt,value
2024-03-02T00:12:33.479Z,88.38
2024-03-02T08:40:28.486Z,31.40
2024-03-02T10:18:39.586Z,25.13
2024-03-02T10:21:26.880Z,25.98
2024-03-02T10:23:54.495Z,25.25
2024-03-02T10:26:22.253Z,24.42
2024-03-02T10:28:49.641Z,23.70
2024-03-02T10:31:19.720Z,23.63
2024-03-02T10:33:47.078Z,25.70
2024-03-02T10:36:14.526Z,25.65
2024-03-02T10:38:43.250Z,22.42
2024-03-02T10:41:10.601Z,22.98
2024-03-02T10:43:41.084Z,25.17
2024-03-02T10:46:11.628Z,21.88
2024-03-02T10:48:45.686Z,23.92
2024-03-02T10:51:14.672Z,24.55
2024-03-02T10:53:44.291Z,21.33
2024-03-02T10:56:20.310Z,22.17
2024-03-02T10:58:50.336Z,22.15
2024-03-02T11:01:18.620Z,24.52
2024-03-02T11:03:48.925Z,22.52
2024-03-02T11:06:16.650Z,23.38
2024-03-02T11:08:48.801Z,21.38
2024-03-02T11:11:23.339Z,25.88
2024-03-02T11:13:51.851Z,21.17
2024-03-02T11:16:40.357Z,20.88
2024-03-02T11:19:17.802Z,20.65
2024-03-02T11:21:48.456Z,24.38
2024-03-02T11:24:38.444Z,18.48
2024-03-02T11:27:10.155Z,19.40
2024-03-02T11:29:40.255Z,19.92
2024-03-02T11:32:41.157Z,19.90
2024-03-02T11:35:15.809Z,19.15
2024-03-02T11:37:48.213Z,20.40
2024-03-02T11:40:15.595Z,20.05
2024-03-02T11:47:02.421Z,20.42
2024-03-02T12:02:51.055Z,21.90
2024-03-02T12:05:38.937Z,21.48
2024-03-02T12:21:36.588Z,21.70
2024-03-02T12:23:17.829Z,22.70
2024-03-02T12:28:20.776Z,21.70
2024-03-02T13:51:04.944Z,23.67
2024-03-02T13:53:39.339Z,27.13
2024-03-02T13:56:07.036Z,23.73
2024-03-02T13:58:34.313Z,25.98
2024-03-02T14:01:02.710Z,23.90
2024-03-02T14:03:31.695Z,23.25
2024-03-02T14:05:59.624Z,23.58
2024-03-02T14:08:27.097Z,23.73
2024-03-02T14:10:55.820Z,23.38
2024-03-02T14:13:24.223Z,25.50
2024-03-02T14:15:51.685Z,26.02
2024-03-02T14:18:22.564Z,24.65
2024-03-02T14:21:01.355Z,25.30
2024-03-02T14:23:31.221Z,24.00
2024-03-02T14:26:00.692Z,23.90
2024-03-02T14:28:43.977Z,24.08
2024-03-02T14:31:19.463Z,26.17
2024-03-02T14:33:47.477Z,27.95
2024-03-02T14:36:17.316Z,27.85
2024-03-02T14:38:44.448Z,31.15
2024-03-02T14:41:12.359Z,30.70
2024-03-02T14:43:39.775Z,27.05
2024-03-02T14:46:10.253Z,29.52
2024-03-02T14:48:40.514Z,28.83
2024-03-02T14:51:08.252Z,29.55
2024-03-02T14:53:35.530Z,29.75
2024-03-02T14:56:05.474Z,29.40
2024-03-02T14:58:32.765Z,28.98
2024-03-02T15:01:00.185Z,28.92
2024-03-02T15:03:27.536Z,27.10
2024-03-02T15:05:55.163Z,30.33
2024-03-02T15:08:24.978Z,29.77
2024-03-02T15:10:52.310Z,27.70
2024-03-02T15:13:20.059Z,28.08
2024-03-02T15:15:47.753Z,31.27
2024-03-02T15:18:15.038Z,30.10
2024-03-02T15:20:42.246Z,31.20
2024-03-02T15:23:09.700Z,35.00
2024-03-02T15:25:37.172Z,32.92
2024-03-02T15:28:05.238Z,33.60
2024-03-02T15:30:32.550Z,33.20
2024-03-02T15:32:59.818Z,35.72
2024-03-02T15:35:27.710Z,35.05
2024-03-02T15:37:55.097Z,33.72
2024-03-02T15:40:22.643Z,35.92
2024-03-02T15:42:49.941Z,35.72
2024-03-02T15:45:17.418Z,32.65
2024-03-02T15:47:44.916Z,34.28
2024-03-02T15:50:12.969Z,34.20
2024-03-02T15:52:40.190Z,35.22
2024-03-02T15:55:08.144Z,36.65
2024-03-02T15:57:36.731Z,36.97
2024-03-02T16:00:06.750Z,38.50
2024-03-02T16:02:34.362Z,37.00
2024-03-02T16:05:01.512Z,39.90
2024-03-02T16:07:28.774Z,37.55
2024-03-02T16:09:56.049Z,38.42
2024-03-02T16:12:23.769Z,37.10
2024-03-02T16:14:50.972Z,35.35
2024-03-02T16:17:18.195Z,35.47
2024-03-02T16:19:45.991Z,37.67
2024-03-02T16:22:13.261Z,38.05
2024-03-02T16:24:45.971Z,39.15
2024-03-02T16:27:13.266Z,38.20
2024-03-02T16:29:40.775Z,39.63
2024-03-02T16:32:08.335Z,39.55
2024-03-02T16:34:35.927Z,38.17
2024-03-02T16:37:04.751Z,36.28
2024-03-02T16:39:32.592Z,39.55
2024-03-02T16:42:05.385Z,39.08
2024-03-02T16:44:32.639Z,40.10
2024-03-02T16:47:00.105Z,40.65
2024-03-02T16:49:28.259Z,42.78
2024-03-02T16:51:57.676Z,39.03
2024-03-02T16:54:26.489Z,40.10
2024-03-02T16:56:53.716Z,41.20
2024-03-02T16:59:25.466Z,43.28
2024-03-02T17:01:52.694Z,42.05
2024-03-02T17:04:29.031Z,43.80
2024-03-02T17:06:56.293Z,45.53
2024-03-02T17:09:26.858Z,43.88
2024-03-02T17:11:58.441Z,43.92
2024-03-02T17:14:28.092Z,41.83
2024-03-02T17:16:56.491Z,45.13
2024-03-02T17:19:32.210Z,48.38
2024-03-02T17:22:08.001Z,43.22
2024-03-02T17:24:42.549Z,47.78
2024-03-02T17:27:28.929Z,46.95
2024-03-02T17:29:56.088Z,49.38
2024-03-02T17:32:31.537Z,45.85
2024-03-02T17:35:12.711Z,52.10
2024-03-02T17:37:52.334Z,47.75
2024-03-02T17:40:21.933Z,52.80
2024-03-02T17:42:49.133Z,54.05
2024-03-02T17:45:19.473Z,53.95
2024-03-02T17:47:46.603Z,56.08
2024-03-02T17:50:13.818Z,57.97
2024-03-02T17:52:43.096Z,65.40
2024-03-02T17:55:14.002Z,59.90
2024-03-02T17:57:50.522Z,53.10
2024-03-02T18:00:26.335Z,55.25
2024-03-02T18:03:05.104Z,50.92
2024-03-02T18:05:35.485Z,51.60
2024-03-02T18:08:08.845Z,49.47
2024-03-02T18:10:37.953Z,51.63
2024-03-02T18:13:07.568Z,53.33
2024-03-02T18:15:41.388Z,52.67
2024-03-02T18:18:10.635Z,59.13
2024-03-02T18:20:41.122Z,58.28
2024-03-02T18:23:09.804Z,55.47
2024-03-02T18:25:44.352Z,53.05
2024-03-02T18:28:11.494Z,57.50
2024-03-02T18:30:38.949Z,54.03
2024-03-02T18:33:06.396Z,54.28
2024-03-02T18:35:50.334Z,57.15
2024-03-02T18:38:21.481Z,54.75
2024-03-02T18:40:53.244Z,55.00
2024-03-02T18:43:20.809Z,56.72
2024-03-02T18:45:52.274Z,56.22
2024-03-02T18:48:20.730Z,55.47
2024-03-02T18:50:50.065Z,60.50
2024-03-02T18:53:29.321Z,62.47
2024-03-02T18:55:58.013Z,58.45
2024-03-02T18:58:31.015Z,59.42
2024-03-02T19:01:00.523Z,55.40
2024-03-02T19:03:32.490Z,60.55
2024-03-02T19:06:06.170Z,61.17
2024-03-02T19:08:33.298Z,61.13
2024-03-02T19:11:01.348Z,54.88
2024-03-02T19:13:31.384Z,66.82
2024-03-02T19:16:01.392Z,67.55
2024-03-02T19:18:50.761Z,64.75
2024-03-02T19:21:20.151Z,60.17
2024-03-02T19:24:03.782Z,69.70
2024-03-02T19:26:31.009Z,62.95
2024-03-02T19:29:03.232Z,63.40
2024-03-02T19:31:36.693Z,64.75
2024-03-02T19:34:11.036Z,63.13
2024-03-02T19:36:38.294Z,60.15
2024-03-02T19:39:13.648Z,62.28
2024-03-02T19:41:45.010Z,60.47
2024-03-02T19:44:18.077Z,58.30
2024-03-02T19:46:45.227Z,59.72
2024-03-02T19:49:16.943Z,56.63
2024-03-02T19:51:44.489Z,60.92
2024-03-02T19:54:13.098Z,60.88
2024-03-02T19:56:40.407Z,58.08
2024-03-02T19:59:10.946Z,62.33
2024-03-02T20:01:38.522Z,64.15
2024-03-02T20:04:06.140Z,57.60
2024-03-02T20:06:33.456Z,63.63
2024-03-02T20:09:00.605Z,58.80
2024-03-02T20:11:31.697Z,63.50
2024-03-02T20:13:59.119Z,62.05
2024-03-02T20:16:26.687Z,63.83
2024-03-02T20:18:53.934Z,64.68
2024-03-02T20:21:21.357Z,61.17
2024-03-02T20:23:49.620Z,61.72
2024-03-02T20:26:19.095Z,62.53
2024-03-02T20:28:47.692Z,60.30
2024-03-02T20:31:15.550Z,61.00
2024-03-02T20:33:42.857Z,57.95
2024-03-02T20:36:14.901Z,58.70
2024-03-02T20:38:42.685Z,59.28
2024-03-02T20:41:19.892Z,65.90
2024-03-02T20:43:47.465Z,62.60
2024-03-02T20:46:14.874Z,62.25
2024-03-02T20:48:42.727Z,67.40
2024-03-02T20:51:10.279Z,64.00
2024-03-02T20:53:37.937Z,61.20
2024-03-02T20:56:05.889Z,64.82
2024-03-02T20:58:34.393Z,64.97
2024-03-02T21:01:01.488Z,63.38
2024-03-02T21:03:28.831Z,62.75
2024-03-02T21:05:55.997Z,62.70
2024-03-02T21:08:23.408Z,60.80
2024-03-02T21:10:50.795Z,59.03
2024-03-02T21:13:20.340Z,61.00
2024-03-02T21:15:48.893Z,59.13
2024-03-02T21:18:17.118Z,56.72
2024-03-02T21:20:44.583Z,53.30
2024-03-02T21:23:15.852Z,57.00
2024-03-02T21:25:43.358Z,56.78
2024-03-02T21:28:10.822Z,54.45
2024-03-02T21:30:38.382Z,52.20
2024-03-02T21:33:06.083Z,52.42
2024-03-02T21:35:33.859Z,52.95
2024-03-02T21:38:04.183Z,49.08
2024-03-02T21:40:32.469Z,54.67
2024-03-02T21:43:00.892Z,51.50
2024-03-02T21:45:28.331Z,52.63
2024-03-02T21:47:55.447Z,52.35
2024-03-02T21:50:22.761Z,53.60
2024-03-02T21:52:54.766Z,46.22
2024-03-02T21:55:22.680Z,50.65
2024-03-02T21:57:49.858Z,53.85
2024-03-02T22:00:18.961Z,51.47
2024-03-02T22:02:46.100Z,50.83
2024-03-02T22:05:13.507Z,49.53
2024-03-02T22:07:41.042Z,49.50
2024-03-02T22:10:08.700Z,51.22
2024-03-02T22:12:36.150Z,51.67
2024-03-02T22:15:03.449Z,49.10
2024-03-02T22:17:30.514Z,50.88
2024-03-02T22:19:57.946Z,53.28
2024-03-02T22:22:25.322Z,52.70
2024-03-02T22:24:52.813Z,51.90
2024-03-02T22:27:20.209Z,49.78
2024-03-02T22:29:47.334Z,50.03
2024-03-02T22:32:14.449Z,51.95
2024-03-02T22:34:41.554Z,52.15
2024-03-02T22:37:09.509Z,52.83
2024-03-02T22:39:36.772Z,54.38
2024-03-02T22:42:04.056Z,51.63
2024-03-02T22:44:33.380Z,56.35
2024-03-02T22:47:00.749Z,50.60
2024-03-02T22:49:29.050Z,54.00
2024-03-02T22:51:56.464Z,56.95
2024-03-02T22:54:25.192Z,55.97
2024-03-02T22:56:52.509Z,54.47
2024-03-02T22:59:19.894Z,56.05
2024-03-02T23:01:47.366Z,59.08
2024-03-02T23:04:14.886Z,54.85
2024-03-02T23:06:42.493Z,53.13
2024-03-02T23:09:09.932Z,56.80
2024-03-02T23:11:37.121Z,63.13
2024-03-02T23:14:06.259Z,55.00
2024-03-02T23:16:36.014Z,62.08
2024-03-02T23:19:03.385Z,60.65
2024-03-02T23:21:30.589Z,57.33
2024-03-02T23:23:58.994Z,61.55
2024-03-02T23:26:26.604Z,60.97
2024-03-02T23:28:53.685Z,71.55
2024-03-02T23:31:21.065Z,61.13
2024-03-02T23:33:50.460Z,63.22
2024-03-02T23:36:17.616Z,61.33
2024-03-02T23:38:44.768Z,66.05
2024-03-02T23:41:12.669Z,59.70
2024-03-02T23:43:40.823Z,61.78
2024-03-02T23:46:09.353Z,63.80
2024-03-02T23:48:37.392Z,68.38
2024-03-02T23:51:05.056Z,62.20
2024-03-02T23:53:32.517Z,62.85
2024-03-02T23:56:12.733Z,66.03
2024-03-02T23:58:40.697Z,64.95
